sensor_id;sensor_type;location;lat;lon;timestamp;pressure;altitude;pressure_sealevel;temperature;humidity
48926;BME280;39838;59.938;30.642;2023-07-20T00:02:18;99087.13;;;15.48;83.00
48926;BME280;39838;59.938;30.642;2023-07-20T00:04:45;99089.75;;;15.48;83.36
48926;BME280;39838;59.938;30.642;2023-07-20T00:07:14;99089.88;;;15.45;83.46
48926;BME280;39838;59.938;30.642;2023-07-20T00:09:41;99095.13;;;15.45;83.26
48926;BME280;39838;59.938;30.642;2023-07-20T00:12:09;99092.53;;;15.44;83.53
48926;BME280;39838;59.938;30.642;2023-07-20T00:14:36;99089.06;;;15.43;83.60
48926;BME280;39838;59.938;30.642;2023-07-20T00:17:03;99096.06;;;15.43;83.49
48926;BME280;39838;59.938;30.642;2023-07-20T00:19:30;99094.44;;;15.40;83.75
48926;BME280;39838;59.938;30.642;2023-07-20T00:21:58;99079.00;;;15.34;83.71
48926;BME280;39838;59.938;30.642;2023-07-20T00:24:27;99069.78;;;15.25;84.01
48926;BME280;39838;59.938;30.642;2023-07-20T00:26:54;99092.03;;;15.36;83.84
48926;BME280;39838;59.938;30.642;2023-07-20T00:29:21;99093.00;;;15.33;84.00
48926;BME280;39838;59.938;30.642;2023-07-20T00:31:49;99092.94;;;15.35;84.03
48926;BME280;39838;59.938;30.642;2023-07-20T00:34:16;99095.56;;;15.35;84.38
48926;BME280;39838;59.938;30.642;2023-07-20T00:36:43;99091.25;;;15.34;84.37
48926;BME280;39838;59.938;30.642;2023-07-20T00:39:10;99086.13;;;15.30;84.41
48926;BME280;39838;59.938;30.642;2023-07-20T00:41:39;99087.88;;;15.30;84.30
48926;BME280;39838;59.938;30.642;2023-07-20T00:44:06;99092.28;;;15.29;84.55
48926;BME280;39838;59.938;30.642;2023-07-20T00:46:33;99090.50;;;15.30;84.42
48926;BME280;39838;59.938;30.642;2023-07-20T00:49:01;99094.84;;;15.31;84.72
48926;BME280;39838;59.938;30.642;2023-07-20T00:51:28;99092.16;;;15.33;84.88
48926;BME280;39838;59.938;30.642;2023-07-20T00:53:56;99085.09;;;15.35;84.68
48926;BME280;39838;59.938;30.642;2023-07-20T00:56:23;99085.00;;;15.36;84.66
48926;BME280;39838;59.938;30.642;2023-07-20T00:58:52;99090.22;;;15.38;84.74
48926;BME280;39838;59.938;30.642;2023-07-20T01:01:19;99089.16;;;15.42;84.95
48926;BME280;39838;59.938;30.642;2023-07-20T01:03:47;99095.16;;;15.44;85.04
48926;BME280;39838;59.938;30.642;2023-07-20T01:06:22;99067.03;;;15.28;84.88
48926;BME280;39838;59.938;30.642;2023-07-20T01:09:04;99094.31;;;15.43;84.52
48926;BME280;39838;59.938;30.642;2023-07-20T01:11:38;99083.72;;;15.46;84.68
48926;BME280;39838;59.938;30.642;2023-07-20T01:14:07;99092.34;;;15.48;84.73
48926;BME280;39838;59.938;30.642;2023-07-20T01:16:35;99094.91;;;15.50;84.53
48926;BME280;39838;59.938;30.642;2023-07-20T01:19:02;99098.31;;;15.52;84.79
48926;BME280;39838;59.938;30.642;2023-07-20T01:21:34;99109.50;;;15.55;84.63
48926;BME280;39838;59.938;30.642;2023-07-20T01:24:21;99097.41;;;15.53;84.74
48926;BME280;39838;59.938;30.642;2023-07-20T01:30:16;99102.19;;;15.64;84.92
48926;BME280;39838;59.938;30.642;2023-07-20T01:32:49;99105.41;;;15.70;84.73
48926;BME280;39838;59.938;30.642;2023-07-20T01:35:20;99096.50;;;15.74;84.83
48926;BME280;39838;59.938;30.642;2023-07-20T01:37:50;99093.63;;;15.80;84.85
48926;BME280;39838;59.938;30.642;2023-07-20T01:40:19;99101.34;;;15.83;84.97
48926;BME280;39838;59.938;30.642;2023-07-20T01:42:48;99100.38;;;15.86;85.02
48926;BME280;39838;59.938;30.642;2023-07-20T01:45:15;99101.84;;;15.92;85.01
48926;BME280;39838;59.938;30.642;2023-07-20T01:47:42;99100.97;;;15.93;85.10
48926;BME280;39838;59.938;30.642;2023-07-20T01:50:11;99101.72;;;15.95;85.06
48926;BME280;39838;59.938;30.642;2023-07-20T01:52:38;99105.06;;;15.98;85.19
48926;BME280;39838;59.938;30.642;2023-07-20T01:55:06;99099.78;;;16.00;85.22
48926;BME280;39838;59.938;30.642;2023-07-20T01:57:33;99102.31;;;16.01;85.22
48926;BME280;39838;59.938;30.642;2023-07-20T02:00:01;99098.78;;;16.02;85.18
48926;BME280;39838;59.938;30.642;2023-07-20T02:02:30;99096.03;;;16.05;85.27
48926;BME280;39838;59.938;30.642;2023-07-20T02:04:57;99101.19;;;16.07;85.19
48926;BME280;39838;59.938;30.642;2023-07-20T02:07:26;99109.81;;;16.09;85.44
48926;BME280;39838;59.938;30.642;2023-07-20T02:09:53;99105.38;;;16.11;85.31
48926;BME280;39838;59.938;30.642;2023-07-20T02:12:20;99107.06;;;16.12;85.33
48926;BME280;39838;59.938;30.642;2023-07-20T02:14:47;99102.63;;;16.14;85.48
48926;BME280;39838;59.938;30.642;2023-07-20T02:17:16;99102.63;;;16.14;85.51
48926;BME280;39838;59.938;30.642;2023-07-20T02:19:43;99109.41;;;16.18;85.47
48926;BME280;39838;59.938;30.642;2023-07-20T02:22:10;99104.91;;;16.22;85.59
48926;BME280;39838;59.938;30.642;2023-07-20T02:24:39;99105.75;;;16.22;85.50
48926;BME280;39838;59.938;30.642;2023-07-20T02:27:06;99100.50;;;16.22;85.45
48926;BME280;39838;59.938;30.642;2023-07-20T02:29:34;99096.97;;;16.23;85.44
48926;BME280;39838;59.938;30.642;2023-07-20T02:32:01;99112.56;;;16.26;85.46
48926;BME280;39838;59.938;30.642;2023-07-20T02:34:28;99115.94;;;16.28;85.63
48926;BME280;39838;59.938;30.642;2023-07-20T02:36:56;99108.94;;;16.29;85.42
48926;BME280;39838;59.938;30.642;2023-07-20T02:39:24;99105.31;;;16.31;85.43
48926;BME280;39838;59.938;30.642;2023-07-20T02:41:52;99103.50;;;16.33;85.55
48926;BME280;39838;59.938;30.642;2023-07-20T02:44:20;99098.88;;;16.38;85.31
48926;BME280;39838;59.938;30.642;2023-07-20T02:46:47;99109.16;;;16.43;85.21
48926;BME280;39838;59.938;30.642;2023-07-20T02:49:15;99118.50;;;16.49;84.99
48926;BME280;39838;59.938;30.642;2023-07-20T02:51:42;99115.72;;;16.52;84.92
48926;BME280;39838;59.938;30.642;2023-07-20T02:54:10;99106.06;;;16.54;84.63
48926;BME280;39838;59.938;30.642;2023-07-20T02:56:37;99113.84;;;16.55;84.50
48926;BME280;39838;59.938;30.642;2023-07-20T02:59:05;99101.56;;;16.56;84.32
48926;BME280;39838;59.938;30.642;2023-07-20T03:01:33;99100.81;;;16.54;84.25
48926;BME280;39838;59.938;30.642;2023-07-20T03:04:00;99111.28;;;16.54;84.09
48926;BME280;39838;59.938;30.642;2023-07-20T03:06:28;99118.22;;;16.55;84.07
48926;BME280;39838;59.938;30.642;2023-07-20T03:08:55;99110.38;;;16.55;83.99
48926;BME280;39838;59.938;30.642;2023-07-20T03:11:23;99115.63;;;16.55;83.85
48926;BME280;39838;59.938;30.642;2023-07-20T03:13:50;99117.16;;;16.59;83.87
48926;BME280;39838;59.938;30.642;2023-07-20T03:16:19;99102.34;;;16.58;83.56
48926;BME280;39838;59.938;30.642;2023-07-20T03:18:46;99116.81;;;16.67;83.49
48926;BME280;39838;59.938;30.642;2023-07-20T03:21:13;99112.31;;;16.70;83.36
48926;BME280;39838;59.938;30.642;2023-07-20T03:23:41;99117.25;;;16.76;83.01
48926;BME280;39838;59.938;30.642;2023-07-20T03:26:08;99116.97;;;16.82;82.98
48926;BME280;39838;59.938;30.642;2023-07-20T03:28:36;99119.22;;;16.90;82.65
48926;BME280;39838;59.938;30.642;2023-07-20T03:31:04;99119.03;;;16.95;82.40
48926;BME280;39838;59.938;30.642;2023-07-20T03:33:33;99109.28;;;16.97;82.04
48926;BME280;39838;59.938;30.642;2023-07-20T03:36:01;99098.16;;;16.91;81.91
48926;BME280;39838;59.938;30.642;2023-07-20T03:38:28;99115.84;;;17.05;81.92
48926;BME280;39838;59.938;30.642;2023-07-20T03:40:56;99122.59;;;17.11;81.83
48926;BME280;39838;59.938;30.642;2023-07-20T03:43:25;99116.34;;;17.13;81.59
48926;BME280;39838;59.938;30.642;2023-07-20T03:45:53;99110.75;;;17.21;81.20
48926;BME280;39838;59.938;30.642;2023-07-20T03:48:23;99122.69;;;17.27;81.07
48926;BME280;39838;59.938;30.642;2023-07-20T03:50:53;99112.34;;;17.24;80.94
48926;BME280;39838;59.938;30.642;2023-07-20T03:53:20;99119.16;;;17.28;80.97
48926;BME280;39838;59.938;30.642;2023-07-20T03:55:49;99117.97;;;17.33;80.87
48926;BME280;39838;59.938;30.642;2023-07-20T03:58:16;99119.16;;;17.45;80.77
48926;BME280;39838;59.938;30.642;2023-07-20T04:00:45;99112.88;;;17.47;80.39
48926;BME280;39838;59.938;30.642;2023-07-20T04:03:13;99115.00;;;17.58;80.09
48926;BME280;39838;59.938;30.642;2023-07-20T04:05:40;99114.06;;;17.59;80.09
48926;BME280;39838;59.938;30.642;2023-07-20T04:08:09;99121.31;;;17.54;79.91
48926;BME280;39838;59.938;30.642;2023-07-20T04:10:37;99111.69;;;17.55;80.00
48926;BME280;39838;59.938;30.642;2023-07-20T04:13:05;99113.38;;;17.56;80.26
48926;BME280;39838;59.938;30.642;2023-07-20T04:15:32;99114.91;;;17.60;79.95
48926;BME280;39838;59.938;30.642;2023-07-20T04:17:59;99113.38;;;17.56;80.04
48926;BME280;39838;59.938;30.642;2023-07-20T04:20:26;99120.16;;;17.60;79.89
48926;BME280;39838;59.938;30.642;2023-07-20T04:22:54;99115.53;;;17.65;79.57
48926;BME280;39838;59.938;30.642;2023-07-20T04:25:22;99111.56;;;17.75;79.32
48926;BME280;39838;59.938;30.642;2023-07-20T04:27:50;99118.94;;;17.84;78.95
48926;BME280;39838;59.938;30.642;2023-07-20T04:30:18;99119.31;;;17.94;78.81
48926;BME280;39838;59.938;30.642;2023-07-20T04:32:48;99119.69;;;18.04;78.13
48926;BME280;39838;59.938;30.642;2023-07-20T04:35:44;99117.06;;;18.04;77.83
48926;BME280;39838;59.938;30.642;2023-07-20T04:38:12;99132.44;;;18.11;77.83
48926;BME280;39838;59.938;30.642;2023-07-20T04:40:43;99130.41;;;18.16;77.78
48926;BME280;39838;59.938;30.642;2023-07-20T04:43:10;99132.03;;;18.19;77.66
48926;BME280;39838;59.938;30.642;2023-07-20T04:45:37;99120.16;;;18.27;77.36
48926;BME280;39838;59.938;30.642;2023-07-20T04:48:09;99120.03;;;18.31;76.85
48926;BME280;39838;59.938;30.642;2023-07-20T04:50:37;99120.44;;;18.39;76.39
48926;BME280;39838;59.938;30.642;2023-07-20T04:53:05;99122.84;;;18.43;75.96
48926;BME280;39838;59.938;30.642;2023-07-20T04:55:32;99123.50;;;18.47;75.87
48926;BME280;39838;59.938;30.642;2023-07-20T04:58:02;99109.59;;;18.45;75.69
48926;BME280;39838;59.938;30.642;2023-07-20T05:00:30;99113.25;;;18.58;75.30
48926;BME280;39838;59.938;30.642;2023-07-20T05:02:57;99112.00;;;18.65;75.24
48926;BME280;39838;59.938;30.642;2023-07-20T05:05:24;99109.47;;;18.64;75.20
48926;BME280;39838;59.938;30.642;2023-07-20T05:07:51;99118.66;;;18.72;75.04
48926;BME280;39838;59.938;30.642;2023-07-20T05:10:19;99120.00;;;18.79;74.39
48926;BME280;39838;59.938;30.642;2023-07-20T05:12:46;99115.59;;;18.80;73.92
48926;BME280;39838;59.938;30.642;2023-07-20T05:15:15;99112.19;;;18.78;73.80
48926;BME280;39838;59.938;30.642;2023-07-20T05:17:42;99120.50;;;18.86;73.59
48926;BME280;39838;59.938;30.642;2023-07-20T05:20:09;99127.88;;;18.95;73.06
48926;BME280;39838;59.938;30.642;2023-07-20T05:22:38;99117.00;;;19.01;72.48
48926;BME280;39838;59.938;30.642;2023-07-20T05:25:07;99120.66;;;19.15;72.11
48926;BME280;39838;59.938;30.642;2023-07-20T05:27:36;99123.63;;;19.24;71.78
48926;BME280;39838;59.938;30.642;2023-07-20T05:30:04;99123.00;;;19.35;71.08
48926;BME280;39838;59.938;30.642;2023-07-20T05:32:34;99121.09;;;19.37;70.92
48926;BME280;39838;59.938;30.642;2023-07-20T05:35:02;99120.09;;;19.40;70.68
48926;BME280;39838;59.938;30.642;2023-07-20T05:37:30;99132.31;;;19.41;70.44
48926;BME280;39838;59.938;30.642;2023-07-20T05:39:57;99124.16;;;19.45;70.31
48926;BME280;39838;59.938;30.642;2023-07-20T05:42:25;99130.94;;;19.49;70.14
48926;BME280;39838;59.938;30.642;2023-07-20T05:44:52;99128.88;;;19.54;69.87
48926;BME280;39838;59.938;30.642;2023-07-20T05:47:21;99131.19;;;19.60;69.47
48926;BME280;39838;59.938;30.642;2023-07-20T05:49:49;99134.69;;;19.61;69.20
48926;BME280;39838;59.938;30.642;2023-07-20T05:52:16;99146.38;;;19.71;68.70
48926;BME280;39838;59.938;30.642;2023-07-20T05:54:44;99124.44;;;19.71;68.33
48926;BME280;39838;59.938;30.642;2023-07-20T05:57:11;99128.69;;;19.73;68.23
48926;BME280;39838;59.938;30.642;2023-07-20T05:59:39;99124.44;;;19.71;67.93
48926;BME280;39838;59.938;30.642;2023-07-20T06:02:10;99124.81;;;19.65;68.02
48926;BME280;39838;59.938;30.642;2023-07-20T06:04:38;99140.97;;;19.58;67.61
48926;BME280;39838;59.938;30.642;2023-07-20T06:07:07;99129.84;;;19.53;67.82
48926;BME280;39838;59.938;30.642;2023-07-20T06:09:35;99126.81;;;19.45;67.75
48926;BME280;39838;59.938;30.642;2023-07-20T06:12:02;99129.38;;;19.31;68.10
48926;BME280;39838;59.938;30.642;2023-07-20T06:14:30;99119.25;;;19.23;68.02
48926;BME280;39838;59.938;30.642;2023-07-20T06:16:57;99138.63;;;19.38;67.96
48926;BME280;39838;59.938;30.642;2023-07-20T06:19:24;99140.91;;;19.44;67.88
48926;BME280;39838;59.938;30.642;2023-07-20T06:21:52;99141.56;;;19.48;67.36
48926;BME280;39838;59.938;30.642;2023-07-20T06:24:20;99140.47;;;19.52;67.10
48926;BME280;39838;59.938;30.642;2023-07-20T06:26:47;99145.44;;;19.56;67.08
48926;BME280;39838;59.938;30.642;2023-07-20T06:29:14;99143.81;;;19.70;66.18
48926;BME280;39838;59.938;30.642;2023-07-20T06:31:41;99164.69;;;19.58;65.74
48926;BME280;39838;59.938;30.642;2023-07-20T06:34:09;99147.41;;;19.53;65.62
48926;BME280;39838;59.938;30.642;2023-07-20T06:36:36;99146.38;;;19.55;65.91
48926;BME280;39838;59.938;30.642;2023-07-20T06:39:04;99155.66;;;19.62;66.23
48926;BME280;39838;59.938;30.642;2023-07-20T06:41:32;99146.56;;;19.68;65.25
48926;BME280;39838;59.938;30.642;2023-07-20T06:43:59;99149.09;;;19.70;65.46
48926;BME280;39838;59.938;30.642;2023-07-20T06:46:27;99160.31;;;19.73;65.23
48926;BME280;39838;59.938;30.642;2023-07-20T06:48:54;99170.03;;;19.87;65.48
48926;BME280;39838;59.938;30.642;2023-07-20T06:51:22;99152.06;;;19.94;64.09
48926;BME280;39838;59.938;30.642;2023-07-20T06:53:49;99165.16;;;19.95;63.48
48926;BME280;39838;59.938;30.642;2023-07-20T06:56:16;99174.22;;;20.05;63.82
48926;BME280;39838;59.938;30.642;2023-07-20T06:58:45;99153.63;;;20.12;63.14
48926;BME280;39838;59.938;30.642;2023-07-20T07:01:12;99168.28;;;20.16;62.97
48926;BME280;39838;59.938;30.642;2023-07-20T07:03:39;99166.72;;;20.28;62.77
48926;BME280;39838;59.938;30.642;2023-07-20T07:06:06;99157.84;;;20.43;62.14
48926;BME280;39838;59.938;30.642;2023-07-20T07:08:34;99174.88;;;20.37;61.28
48926;BME280;39838;59.938;30.642;2023-07-20T07:11:01;99171.03;;;20.43;61.18
48926;BME280;39838;59.938;30.642;2023-07-20T07:13:28;99167.31;;;20.47;59.92
48926;BME280;39838;59.938;30.642;2023-07-20T07:15:57;99161.81;;;20.36;60.08
48926;BME280;39838;59.938;30.642;2023-07-20T07:18:24;99173.44;;;20.48;60.25
48926;BME280;39838;59.938;30.642;2023-07-20T07:20:52;99158.25;;;20.51;59.31
48926;BME280;39838;59.938;30.642;2023-07-20T07:23:20;99163.72;;;20.62;58.56
48926;BME280;39838;59.938;30.642;2023-07-20T07:25:47;99177.84;;;20.61;58.54
48926;BME280;39838;59.938;30.642;2023-07-20T07:28:15;99167.56;;;20.71;58.75
48926;BME280;39838;59.938;30.642;2023-07-20T07:30:42;99163.31;;;20.83;58.32
48926;BME280;39838;59.938;30.642;2023-07-20T07:33:10;99173.28;;;20.92;58.35
48926;BME280;39838;59.938;30.642;2023-07-20T07:35:38;99183.66;;;20.95;57.79
48926;BME280;39838;59.938;30.642;2023-07-20T07:38:05;99183.75;;;20.93;57.64
48926;BME280;39838;59.938;30.642;2023-07-20T07:40:33;99179.25;;;20.81;56.59
48926;BME280;39838;59.938;30.642;2023-07-20T07:43:00;99207.91;;;20.73;56.90
48926;BME280;39838;59.938;30.642;2023-07-20T07:45:27;99190.38;;;20.72;56.75
48926;BME280;39838;59.938;30.642;2023-07-20T07:47:54;99183.28;;;20.72;57.13
48926;BME280;39838;59.938;30.642;2023-07-20T07:50:23;99187.81;;;20.70;57.08
48926;BME280;39838;59.938;30.642;2023-07-20T07:52:50;99182.00;;;20.80;56.87
48926;BME280;39838;59.938;30.642;2023-07-20T07:55:18;99178.75;;;20.89;56.55
48926;BME280;39838;59.938;30.642;2023-07-20T07:57:45;99189.56;;;20.98;56.41
48926;BME280;39838;59.938;30.642;2023-07-20T08:00:14;99184.13;;;21.02;55.96
48926;BME280;39838;59.938;30.642;2023-07-20T08:02:45;99179.47;;;21.05;56.07
48926;BME280;39838;59.938;30.642;2023-07-20T08:05:14;99190.38;;;21.13;55.97
48926;BME280;39838;59.938;30.642;2023-07-20T08:07:43;99200.03;;;21.14;55.87
48926;BME280;39838;59.938;30.642;2023-07-20T08:10:11;99186.59;;;21.17;55.40
48926;BME280;39838;59.938;30.642;2023-07-20T08:12:38;99196.09;;;20.93;55.68
48926;BME280;39838;59.938;30.642;2023-07-20T08:15:07;99184.44;;;20.68;56.57
48926;BME280;39838;59.938;30.642;2023-07-20T08:17:34;99181.81;;;20.68;56.73
48926;BME280;39838;59.938;30.642;2023-07-20T08:20:02;99187.81;;;20.70;56.60
48926;BME280;39838;59.938;30.642;2023-07-20T08:22:31;99178.44;;;20.66;56.86
48926;BME280;39838;59.938;30.642;2023-07-20T08:25:00;99174.72;;;20.83;56.57
48926;BME280;39838;59.938;30.642;2023-07-20T08:27:29;99174.78;;;20.96;56.14
48926;BME280;39838;59.938;30.642;2023-07-20T08:29:57;99192.13;;;21.00;56.26
48926;BME280;39838;59.938;30.642;2023-07-20T08:32:25;99187.78;;;20.99;55.59
48926;BME280;39838;59.938;30.642;2023-07-20T08:34:52;99193.56;;;20.91;56.29
48926;BME280;39838;59.938;30.642;2023-07-20T08:37:20;99194.22;;;20.95;55.98
48926;BME280;39838;59.938;30.642;2023-07-20T08:39:47;99188.28;;;20.77;55.35
48926;BME280;39838;59.938;30.642;2023-07-20T08:42:16;99191.78;;;20.78;55.47
48926;BME280;39838;59.938;30.642;2023-07-20T08:44:44;99180.75;;;20.71;55.61
48926;BME280;39838;59.938;30.642;2023-07-20T08:47:13;99185.47;;;20.66;55.09
48926;BME280;39838;59.938;30.642;2023-07-20T08:49:42;99196.94;;;20.79;54.55
48926;BME280;39838;59.938;30.642;2023-07-20T08:52:10;99194.38;;;20.92;54.00
48926;BME280;39838;59.938;30.642;2023-07-20T08:54:39;99193.59;;;21.18;53.99
48926;BME280;39838;59.938;30.642;2023-07-20T08:57:07;99205.19;;;21.30;53.98
48926;BME280;39838;59.938;30.642;2023-07-20T08:59:37;99203.94;;;21.36;53.39
48926;BME280;39838;59.938;30.642;2023-07-20T09:02:05;99203.56;;;21.42;52.65
48926;BME280;39838;59.938;30.642;2023-07-20T09:04:35;99187.50;;;21.45;51.33
48926;BME280;39838;59.938;30.642;2023-07-20T09:07:03;99203.63;;;21.55;51.32
48926;BME280;39838;59.938;30.642;2023-07-20T09:09:30;99208.91;;;21.67;50.99
48926;BME280;39838;59.938;30.642;2023-07-20T09:11:57;99216.66;;;21.70;50.97
48926;BME280;39838;59.938;30.642;2023-07-20T09:14:25;99209.97;;;21.65;51.76
48926;BME280;39838;59.938;30.642;2023-07-20T09:16:55;99200.75;;;21.58;51.57
48926;BME280;39838;59.938;30.642;2023-07-20T09:19:22;99200.84;;;21.56;51.55
48926;BME280;39838;59.938;30.642;2023-07-20T09:21:51;99213.34;;;21.54;51.53
48926;BME280;39838;59.938;30.642;2023-07-20T09:24:19;99221.34;;;21.52;51.44
48926;BME280;39838;59.938;30.642;2023-07-20T09:26:48;99207.91;;;21.43;51.92
48926;BME280;39838;59.938;30.642;2023-07-20T09:29:18;99206.50;;;21.37;52.36
48926;BME280;39838;59.938;30.642;2023-07-20T09:32:00;99221.03;;;21.30;52.41
48926;BME280;39838;59.938;30.642;2023-07-20T09:34:28;99215.03;;;21.14;52.94
48926;BME280;39838;59.938;30.642;2023-07-20T09:36:57;99209.94;;;20.96;53.41
48926;BME280;39838;59.938;30.642;2023-07-20T09:39:25;99215.03;;;20.85;53.68
48926;BME280;39838;59.938;30.642;2023-07-20T09:41:52;99213.72;;;20.78;53.93
48926;BME280;39838;59.938;30.642;2023-07-20T09:44:19;99215.72;;;20.75;53.88
48926;BME280;39838;59.938;30.642;2023-07-20T09:46:48;99217.91;;;20.68;54.29
48926;BME280;39838;59.938;30.642;2023-07-20T09:49:17;99218.00;;;20.66;54.33
48926;BME280;39838;59.938;30.642;2023-07-20T09:51:44;99225.16;;;20.50;54.54
48926;BME280;39838;59.938;30.642;2023-07-20T09:54:13;99223.59;;;20.32;54.91
48926;BME280;39838;59.938;30.642;2023-07-20T09:56:42;99223.41;;;20.21;54.55
48926;BME280;39838;59.938;30.642;2023-07-20T09:59:09;99223.06;;;20.11;54.89
48926;BME280;39838;59.938;30.642;2023-07-20T10:01:37;99234.94;;;20.04;54.26
48926;BME280;39838;59.938;30.642;2023-07-20T10:04:08;99209.47;;;19.88;53.83
48926;BME280;39838;59.938;30.642;2023-07-20T10:06:42;99230.31;;;19.93;54.09
48926;BME280;39838;59.938;30.642;2023-07-20T10:09:10;99214.34;;;19.80;53.97
48926;BME280;39838;59.938;30.642;2023-07-20T10:11:50;99222.28;;;19.95;53.89
48926;BME280;39838;59.938;30.642;2023-07-20T10:14:20;99224.66;;;19.99;53.45
48926;BME280;39838;59.938;30.642;2023-07-20T10:16:50;99229.00;;;20.00;53.54
48926;BME280;39838;59.938;30.642;2023-07-20T10:19:23;99230.84;;;19.98;53.91
48926;BME280;39838;59.938;30.642;2023-07-20T10:21:57;99232.16;;;19.91;54.41
48926;BME280;39838;59.938;30.642;2023-07-20T10:24:27;99236.94;;;19.84;54.99
48926;BME280;39838;59.938;30.642;2023-07-20T10:26:55;99231.94;;;19.80;55.21
48926;BME280;39838;59.938;30.642;2023-07-20T10:29:23;99240.97;;;19.76;55.55
48926;BME280;39838;59.938;30.642;2023-07-20T10:31:53;99240.38;;;19.71;56.25
48926;BME280;39838;59.938;30.642;2023-07-20T10:34:22;99243.53;;;19.61;56.83
48926;BME280;39838;59.938;30.642;2023-07-20T10:36:49;99241.94;;;19.59;57.90
48926;BME280;39838;59.938;30.642;2023-07-20T10:39:26;99239.44;;;19.56;58.92
48926;BME280;39838;59.938;30.642;2023-07-20T10:42:00;99236.13;;;19.52;60.74
48926;BME280;39838;59.938;30.642;2023-07-20T10:44:28;99245.66;;;19.39;59.75
48926;BME280;39838;59.938;30.642;2023-07-20T10:47:02;99241.91;;;19.43;61.04
48926;BME280;39838;59.938;30.642;2023-07-20T10:49:33;99242.75;;;19.44;60.58
48926;BME280;39838;59.938;30.642;2023-07-20T10:52:04;99240.91;;;19.46;59.95
48926;BME280;39838;59.938;30.642;2023-07-20T10:54:46;99243.19;;;19.52;60.40
48926;BME280;39838;59.938;30.642;2023-07-20T10:57:23;99223.56;;;19.57;58.59
48926;BME280;39838;59.938;30.642;2023-07-20T10:59:51;99231.00;;;19.81;57.61
48926;BME280;39838;59.938;30.642;2023-07-20T11:02:19;99237.91;;;19.98;56.95
48926;BME280;39838;59.938;30.642;2023-07-20T11:04:47;99220.53;;;20.09;56.60
48926;BME280;39838;59.938;30.642;2023-07-20T11:07:16;99227.94;;;20.33;56.14
48926;BME280;39838;59.938;30.642;2023-07-20T11:09:45;99227.31;;;20.58;55.20
48926;BME280;39838;59.938;30.642;2023-07-20T11:12:13;99234.09;;;20.76;53.35
48926;BME280;39838;59.938;30.642;2023-07-20T11:14:41;99238.72;;;20.87;53.10
48926;BME280;39838;59.938;30.642;2023-07-20T11:17:13;99227.84;;;21.06;52.17
48926;BME280;39838;59.938;30.642;2023-07-20T11:19:40;99228.47;;;21.23;51.32
48926;BME280;39838;59.938;30.642;2023-07-20T11:22:08;99223.56;;;21.32;50.44
48926;BME280;39838;59.938;30.642;2023-07-20T11:24:38;99235.16;;;21.43;49.94
48926;BME280;39838;59.938;30.642;2023-07-20T11:27:07;99226.00;;;21.49;49.17
48926;BME280;39838;59.938;30.642;2023-07-20T11:29:35;99222.56;;;21.47;49.07
48926;BME280;39838;59.938;30.642;2023-07-20T11:32:03;99224.47;;;21.45;48.98
48926;BME280;39838;59.938;30.642;2023-07-20T11:34:31;99224.25;;;21.62;48.66
48926;BME280;39838;59.938;30.642;2023-07-20T11:36:59;99222.03;;;21.69;48.41
48926;BME280;39838;59.938;30.642;2023-07-20T11:39:26;99216.66;;;21.70;48.21
48926;BME280;39838;59.938;30.642;2023-07-20T11:41:55;99224.19;;;21.76;48.26
48926;BME280;39838;59.938;30.642;2023-07-20T11:44:26;99211.28;;;21.85;47.75
48926;BME280;39838;59.938;30.642;2023-07-20T11:47:00;99233.28;;;21.85;47.81
48926;BME280;39838;59.938;30.642;2023-07-20T11:49:29;99224.38;;;21.73;47.72
48926;BME280;39838;59.938;30.642;2023-07-20T11:51:57;99225.66;;;21.68;47.71
48926;BME280;39838;59.938;30.642;2023-07-20T11:54:25;99223.00;;;21.80;47.76
48926;BME280;39838;59.938;30.642;2023-07-20T11:56:54;99215.63;;;21.86;47.25
48926;BME280;39838;59.938;30.642;2023-07-20T11:59:21;99216.19;;;22.03;47.04
48926;BME280;39838;59.938;30.642;2023-07-20T12:01:50;99230.44;;;22.15;46.76
48926;BME280;39838;59.938;30.642;2023-07-20T12:04:17;99220.69;;;22.16;46.65
48926;BME280;39838;59.938;30.642;2023-07-20T12:06:45;99204.31;;;22.23;46.06
48926;BME280;39838;59.938;30.642;2023-07-20T12:09:14;99217.63;;;22.34;45.69
48926;BME280;39838;59.938;30.642;2023-07-20T12:11:43;99217.97;;;22.30;45.84
48926;BME280;39838;59.938;30.642;2023-07-20T12:14:11;99221.75;;;22.26;46.13
48926;BME280;39838;59.938;30.642;2023-07-20T12:16:38;99219.53;;;22.20;46.13
48926;BME280;39838;59.938;30.642;2023-07-20T12:19:08;99211.41;;;22.36;46.32
48926;BME280;39838;59.938;30.642;2023-07-20T12:21:36;99220.69;;;22.67;46.08
48926;BME280;39838;59.938;30.642;2023-07-20T12:24:04;99236.69;;;22.91;45.27
48926;BME280;39838;59.938;30.642;2023-07-20T12:26:33;99233.19;;;22.65;44.85
48926;BME280;39838;59.938;30.642;2023-07-20T12:29:00;99232.47;;;22.37;45.52
48926;BME280;39838;59.938;30.642;2023-07-20T12:31:29;99221.31;;;22.19;46.21
48926;BME280;39838;59.938;30.642;2023-07-20T12:33:57;99215.81;;;22.60;45.87
48926;BME280;39838;59.938;30.642;2023-07-20T12:36:26;99219.56;;;23.20;45.54
48926;BME280;39838;59.938;30.642;2023-07-20T12:38:53;99215.41;;;23.77;43.82
48926;BME280;39838;59.938;30.642;2023-07-20T12:41:20;99220.06;;;24.32;42.92
48926;BME280;39838;59.938;30.642;2023-07-20T12:43:48;99231.44;;;24.57;41.40
48926;BME280;39838;59.938;30.642;2023-07-20T12:46:15;99214.19;;;24.62;40.99
48926;BME280;39838;59.938;30.642;2023-07-20T12:48:42;99209.97;;;24.93;41.10
48926;BME280;39838;59.938;30.642;2023-07-20T12:51:09;99212.28;;;25.09;40.02
48926;BME280;39838;59.938;30.642;2023-07-20T12:53:39;99219.75;;;24.93;39.53
48926;BME280;39838;59.938;30.642;2023-07-20T12:56:06;99216.97;;;24.72;39.64
48926;BME280;39838;59.938;30.642;2023-07-20T12:58:33;99207.78;;;24.76;39.49
48926;BME280;39838;59.938;30.642;2023-07-20T13:01:00;99209.13;;;24.59;39.73